createdAt,value
2022-09-23T00:01:41.965Z,2.65
2022-09-23T00:04:08.386Z,3.33
2022-09-23T00:06:34.803Z,2.70
2022-09-23T00:09:01.330Z,3.90
2022-09-23T00:11:28.373Z,2.78
2022-09-23T00:13:57.232Z,4.50
2022-09-23T00:16:29.906Z,4.97
2022-09-23T00:18:56.742Z,3.40
2022-09-23T00:21:23.453Z,3.40
2022-09-23T00:23:49.938Z,3.13
2022-09-23T00:26:18.925Z,2.95
2022-09-23T00:28:45.823Z,5.05
2022-09-23T00:31:17.486Z,2.63
2022-09-23T00:33:44.337Z,3.17
2022-09-23T00:36:17.321Z,2.42
2022-09-23T00:38:44.339Z,3.30
2022-09-23T00:41:11.781Z,4.28
2022-09-23T00:43:41.124Z,3.65
2022-09-23T00:46:16.666Z,2.67
2022-09-23T00:48:44.099Z,3.78
2022-09-23T00:51:13.494Z,3.22
2022-09-23T00:53:40.003Z,3.10
2022-09-23T00:56:08.291Z,4.55
2022-09-23T00:58:36.998Z,3.00
2022-09-23T01:01:04.475Z,3.65
2022-09-23T01:03:31.274Z,2.40
2022-09-23T01:05:57.950Z,2.92
2022-09-23T01:08:24.946Z,1.92
2022-09-23T01:11:18.790Z,4.13
2022-09-23T01:14:19.809Z,3.42
2022-09-23T01:17:27.673Z,2.30
2022-09-23T01:23:50.564Z,3.63
2022-09-23T01:26:48.374Z,4.75
2022-09-23T01:29:29.925Z,3.95
2022-09-23T01:32:12.406Z,4.75
2022-09-23T01:34:48.493Z,4.55
2022-09-23T01:37:24.951Z,2.70
2022-09-23T01:40:01.648Z,3.03
2022-09-23T01:42:43.443Z,4.00
2022-09-23T01:45:22.967Z,4.90
2022-09-23T01:47:56.957Z,4.93
2022-09-23T01:50:49.129Z,4.20
2022-09-23T01:53:19.791Z,8.43
2022-09-23T01:55:50.209Z,4.68
2022-09-23T01:58:26.301Z,3.40
2022-09-23T02:01:01.403Z,5.50
2022-09-23T02:03:34.904Z,5.50
2022-09-23T02:06:09.830Z,4.45
2022-09-23T02:08:41.668Z,3.50
2022-09-23T02:11:16.502Z,3.63
2022-09-23T02:13:52.586Z,4.70
2022-09-23T02:16:26.029Z,2.97
2022-09-23T02:19:07.544Z,3.78
2022-09-23T02:21:36.964Z,3.20
2022-09-23T02:24:25.930Z,2.63
2022-09-23T02:26:56.901Z,4.35
2022-09-23T02:29:44.054Z,2.92
2022-09-23T02:32:18.205Z,5.55
2022-09-23T02:35:01.708Z,3.88
2022-09-23T02:37:41.144Z,3.67
2022-09-23T02:40:22.592Z,2.95
2022-09-23T02:43:02.880Z,2.83
2022-09-23T02:45:29.569Z,4.32
2022-09-23T02:48:09.635Z,2.42
2022-09-23T02:50:36.932Z,3.08
2022-09-23T02:53:03.425Z,3.88
2022-09-23T02:55:32.217Z,4.70
2022-09-23T02:58:01.452Z,3.47
2022-09-23T03:00:34.139Z,5.45
2022-09-23T03:05:36.883Z,3.45
2022-09-23T03:08:36.675Z,5.38
2022-09-23T03:11:10.492Z,3.25
2022-09-23T03:14:01.573Z,2.55
2022-09-23T03:16:34.720Z,2.78
2022-09-23T03:19:04.145Z,4.45
2022-09-23T03:21:42.609Z,3.38
2022-09-23T03:24:09.860Z,4.45
2022-09-23T03:26:37.939Z,3.60
2022-09-23T03:29:06.549Z,5.30
2022-09-23T03:31:34.058Z,3.53
2022-09-23T03:34:03.517Z,3.80
2022-09-23T03:36:51.952Z,5.03
2022-09-23T03:39:34.124Z,4.78
2022-09-23T03:42:04.123Z,3.72
2022-09-23T03:44:31.078Z,4.43
2022-09-23T03:47:02.875Z,3.78
2022-09-23T03:49:33.812Z,5.13
2022-09-23T03:52:02.460Z,5.55
2022-09-23T03:54:29.951Z,5.30
2022-09-23T03:56:59.953Z,5.50
2022-09-23T03:59:27.074Z,3.38
2022-09-23T04:01:54.057Z,4.82
2022-09-23T04:04:20.639Z,4.07
2022-09-23T04:06:47.154Z,3.58
2022-09-23T04:09:13.706Z,2.42
2022-09-23T04:11:40.163Z,6.63
2022-09-23T04:14:06.863Z,3.58
2022-09-23T04:16:33.460Z,2.65
2022-09-23T04:18:59.932Z,2.53
2022-09-23T04:21:26.936Z,4.30
2022-09-23T04:23:53.317Z,5.00
2022-09-23T04:26:19.691Z,3.17
2022-09-23T04:28:46.150Z,4.57
2022-09-23T04:31:12.719Z,4.00
2022-09-23T04:33:39.144Z,4.47
2022-09-23T04:36:05.939Z,4.30
2022-09-23T04:38:32.346Z,6.60
2022-09-23T04:40:58.816Z,6.38
2022-09-23T04:43:25.235Z,6.75
2022-09-23T04:46:02.299Z,5.18
2022-09-23T04:48:28.983Z,5.07
2022-09-23T04:51:02.523Z,3.72
2022-09-23T04:53:29.241Z,6.07
2022-09-23T04:56:01.395Z,2.95
2022-09-23T04:58:28.124Z,7.03
2022-09-23T05:00:54.693Z,6.60
2022-09-23T05:03:21.126Z,10.88
2022-09-23T05:05:47.613Z,8.98
2022-09-23T05:08:13.979Z,8.43
2022-09-23T05:10:40.335Z,6.57
2022-09-23T05:13:06.737Z,7.28
2022-09-23T05:15:33.099Z,5.05
2022-09-23T05:17:59.518Z,3.92
2022-09-23T05:20:26.300Z,4.57
2022-09-23T05:22:55.493Z,3.58
2022-09-23T05:25:23.703Z,6.68
2022-09-23T05:27:50.594Z,4.30
2022-09-23T05:30:16.987Z,4.65
2022-09-23T05:32:43.517Z,7.55
2022-09-23T05:35:09.887Z,4.28
2022-09-23T05:37:37.807Z,7.75
2022-09-23T05:40:04.554Z,5.22
2022-09-23T05:42:30.995Z,5.10
2022-09-23T05:44:57.384Z,4.53
2022-09-23T05:47:23.783Z,6.63
2022-09-23T05:49:59.773Z,5.40
2022-09-23T05:52:26.676Z,5.47
2022-09-23T05:54:53.694Z,4.03
2022-09-23T05:57:20.986Z,4.75
2022-09-23T05:59:47.747Z,4.03
2022-09-23T06:02:15.039Z,4.63
2022-09-23T06:04:41.551Z,2.97
2022-09-23T06:07:08.607Z,10.73
2022-09-23T06:09:36.743Z,7.75
2022-09-23T06:12:04.261Z,9.82
2022-09-23T06:14:30.788Z,4.78
2022-09-23T06:16:57.177Z,3.95
2022-09-23T06:19:23.621Z,5.60
2022-09-23T06:21:50.006Z,4.43
2022-09-23T06:24:20.540Z,5.30
2022-09-23T06:26:49.029Z,5.38
2022-09-23T06:29:15.440Z,8.43
2022-09-23T06:31:43.217Z,7.90
2022-09-23T06:34:13.527Z,8.15
2022-09-23T06:36:45.872Z,6.43
2022-09-23T06:39:15.941Z,10.30
2022-09-23T06:41:43.260Z,10.32
2022-09-23T06:44:15.670Z,14.70
2022-09-23T06:46:42.503Z,9.32
2022-09-23T06:49:11.098Z,13.00
2022-09-23T06:51:37.507Z,10.88
2022-09-23T06:54:03.961Z,10.52
2022-09-23T06:56:33.614Z,8.38
2022-09-23T06:59:04.320Z,6.97
2022-09-23T07:01:30.796Z,9.70
2022-09-23T07:03:57.251Z,8.13
2022-09-23T07:06:23.763Z,8.23
2022-09-23T07:08:52.735Z,4.90
2022-09-23T07:11:22.373Z,6.70
2022-09-23T07:13:48.803Z,8.93
2022-09-23T07:16:15.295Z,6.70
2022-09-23T07:18:42.634Z,7.40
2022-09-23T07:21:14.937Z,7.78
2022-09-23T07:23:45.952Z,6.47
2022-09-23T07:26:13.689Z,9.27
2022-09-23T07:28:40.475Z,6.60
2022-09-23T07:31:10.353Z,6.07
2022-09-23T07:33:38.641Z,6.68
2022-09-23T07:36:10.869Z,5.97
2022-09-23T07:38:40.372Z,9.68
2022-09-23T07:41:11.483Z,7.25
2022-09-23T07:43:39.662Z,8.38
2022-09-23T07:46:10.931Z,9.75
2022-09-23T07:48:38.342Z,7.53
2022-09-23T07:51:22.375Z,9.65
2022-09-23T07:53:50.515Z,7.80
2022-09-23T07:56:19.283Z,7.60
2022-09-23T07:58:46.724Z,6.32
2022-09-23T08:01:13.820Z,9.55
2022-09-23T08:03:40.265Z,7.53
2022-09-23T08:06:11.893Z,7.13
2022-09-23T08:08:40.410Z,6.00
2022-09-23T08:11:10.188Z,10.27
2022-09-23T08:13:37.094Z,11.45
2022-09-23T08:16:03.682Z,10.85
2022-09-23T08:18:30.220Z,7.55
2022-09-23T08:20:56.601Z,8.23
2022-09-23T08:23:23.161Z,8.65
2022-09-23T08:25:59.539Z,9.13
2022-09-23T08:28:26.412Z,7.88
2022-09-23T08:30:53.070Z,9.80
2022-09-23T08:33:23.094Z,8.95
2022-09-23T08:35:50.225Z,12.60
2022-09-23T08:38:16.627Z,10.30
2022-09-23T08:40:45.048Z,8.23
2022-09-23T08:43:22.067Z,6.72
2022-09-23T08:45:50.527Z,4.68
2022-09-23T08:48:23.026Z,3.28
2022-09-23T08:50:53.659Z,3.25
2022-09-23T08:53:28.906Z,2.58
2022-09-23T08:55:58.500Z,3.58
2022-09-23T08:59:02.079Z,2.90
2022-09-23T09:01:49.599Z,2.67
2022-09-23T09:04:39.220Z,2.45
2022-09-23T09:07:36.258Z,3.80
2022-09-23T09:10:06.078Z,4.97
2022-09-23T09:13:00.114Z,2.42
2022-09-23T09:15:27.642Z,4.95
2022-09-23T09:18:01.675Z,2.72
2022-09-23T09:20:38.894Z,3.17
2022-09-23T09:23:11.480Z,2.33
2022-09-23T09:28:16.246Z,2.33
2022-09-23T09:30:48.376Z,2.47
2022-09-23T09:33:21.249Z,2.65
2022-09-23T09:36:08.908Z,3.55
2022-09-23T09:38:36.480Z,3.63
2022-09-23T09:41:12.578Z,2.67
2022-09-23T09:43:44.020Z,3.10
2022-09-23T09:46:35.987Z,3.15
2022-09-23T09:49:23.055Z,4.97
2022-09-23T09:52:20.344Z,3.47
2022-09-23T09:54:49.199Z,3.45
2022-09-23T09:57:32.091Z,3.63
2022-09-23T10:00:26.616Z,1.92
2022-09-23T10:03:04.156Z,3.22
2022-09-23T10:05:46.910Z,4.13
2022-09-23T10:10:58.360Z,3.47
2022-09-23T10:13:27.204Z,4.50
2022-09-23T10:15:57.214Z,3.40
2022-09-23T10:18:38.068Z,7.22
2022-09-23T10:21:14.304Z,4.80
2022-09-23T10:23:45.614Z,4.28
2022-09-23T10:26:13.003Z,5.53
2022-09-23T10:28:46.362Z,2.70
2022-09-23T10:31:12.696Z,3.35
2022-09-23T10:33:49.932Z,2.67
2022-09-23T10:36:17.700Z,3.75
2022-09-23T10:38:44.743Z,5.55
2022-09-23T10:41:55.969Z,2.70
2022-09-23T10:44:52.856Z,6.13
2022-09-23T10:47:32.158Z,3.15
2022-09-23T10:50:11.114Z,4.95
2022-09-23T10:53:02.450Z,3.42
2022-09-23T10:55:50.149Z,3.05
2022-09-23T10:58:31.625Z,4.30
2022-09-23T11:01:23.381Z,3.45
2022-09-23T11:04:01.277Z,6.22
2022-09-23T11:06:49.044Z,3.67
2022-09-23T11:09:27.908Z,3.30
2022-09-23T11:11:54.800Z,5.10
2022-09-23T11:14:42.529Z,2.65
2022-09-23T11:17:26.951Z,2.95
2022-09-23T11:20:21.267Z,3.15
2022-09-23T11:23:26.406Z,2.35
2022-09-23T11:26:07.961Z,3.80
2022-09-23T11:28:50.921Z,4.95
2022-09-23T11:31:47.282Z,5.35
2022-09-23T11:34:18.176Z,2.55
2022-09-23T11:36:51.661Z,3.55
2022-09-23T11:39:21.775Z,3.70
2022-09-23T11:41:50.438Z,2.10
2022-09-23T11:44:26.089Z,2.72
2022-09-23T11:46:57.117Z,4.18
2022-09-23T11:49:33.877Z,3.85
2022-09-23T11:52:05.248Z,2.85
2022-09-23T11:54:40.527Z,3.67
2022-09-23T11:57:11.400Z,2.33
2022-09-23T11:59:43.150Z,2.97
2022-09-23T12:02:48.344Z,2.42
2022-09-23T12:05:23.349Z,2.85
2022-09-23T12:08:03.548Z,2.35
2022-09-23T12:10:41.751Z,5.50
2022-09-23T12:13:17.949Z,3.60
2022-09-23T12:15:53.323Z,3.90
2022-09-23T12:18:53.014Z,3.65
2022-09-23T12:21:51.436Z,2.50
2022-09-23T12:24:46.751Z,3.30
2022-09-23T12:27:23.985Z,5.25
2022-09-23T12:29:55.524Z,2.78
2022-09-23T12:32:22.075Z,6.00
2022-09-23T12:34:49.781Z,3.65
2022-09-23T12:37:23.655Z,4.55
2022-09-23T12:39:50.077Z,4.93
2022-09-23T12:42:19.561Z,2.03
2022-09-23T12:44:48.393Z,2.22
2022-09-23T12:47:14.839Z,3.63
2022-09-23T12:49:42.785Z,2.20
2022-09-23T12:52:13.703Z,3.10
2022-09-23T12:54:40.826Z,4.03
2022-09-23T12:57:14.268Z,2.20
2022-09-23T13:00:07.166Z,3.38
2022-09-23T13:05:26.366Z,2.83
2022-09-23T13:07:58.377Z,2.58
2022-09-23T13:10:30.924Z,3.90
2022-09-23T13:12:57.812Z,3.70
2022-09-23T13:15:28.933Z,4.28
2022-09-23T13:18:20.374Z,2.25
2022-09-23T13:20:48.278Z,1.92
2022-09-23T13:23:14.639Z,4.38
2022-09-23T13:25:42.983Z,2.38
2022-09-23T13:28:26.345Z,2.22
2022-09-23T13:30:53.381Z,3.38
2022-09-23T13:33:29.672Z,2.35
2022-09-23T13:36:00.977Z,2.78
2022-09-23T13:38:30.096Z,3.17
2022-09-23T13:41:07.664Z,2.42
2022-09-23T13:43:41.360Z,1.90
2022-09-23T13:46:13.938Z,2.17
2022-09-23T13:48:41.602Z,4.65
2022-09-23T13:51:15.004Z,1.67
2022-09-23T13:53:41.476Z,1.70
2022-09-23T13:56:16.780Z,2.85
2022-09-23T13:58:43.436Z,4.00
2022-09-23T14:01:34.593Z,2.40
2022-09-23T14:04:02.591Z,4.72
2022-09-23T14:06:32.019Z,2.03
2022-09-23T14:09:00.322Z,2.38
2022-09-23T14:11:33.045Z,3.42
2022-09-23T14:14:00.694Z,2.10
2022-09-23T14:16:28.348Z,4.18
2022-09-23T14:18:59.425Z,6.15
2022-09-23T14:21:36.156Z,2.20
2022-09-23T14:24:22.197Z,2.28
2022-09-23T14:27:00.670Z,4.70
2022-09-23T14:29:31.196Z,2.15
2022-09-23T14:32:01.601Z,3.08
2022-09-23T14:35:05.314Z,2.13
2022-09-23T14:37:56.897Z,2.88
2022-09-23T14:40:34.660Z,3.78
2022-09-23T14:43:23.156Z,4.22
2022-09-23T14:45:56.528Z,2.83
2022-09-23T14:48:25.163Z,2.88
2022-09-23T14:50:55.126Z,2.80
2022-09-23T14:53:24.369Z,4.72
2022-09-23T14:55:53.408Z,4.45
2022-09-23T14:58:24.361Z,4.35
2022-09-23T15:01:01.286Z,3.53
2022-09-23T15:03:28.741Z,4.60
2022-09-23T15:06:07.722Z,3.08
2022-09-23T15:08:35.728Z,3.20
2022-09-23T15:11:08.032Z,3.40
2022-09-23T15:13:38.791Z,2.42
2022-09-23T15:16:05.584Z,2.58
2022-09-23T15:18:37.097Z,5.28
2022-09-23T15:21:14.707Z,7.97
2022-09-23T15:23:41.390Z,3.05
2022-09-23T15:26:17.553Z,2.72
2022-09-23T15:28:44.846Z,2.28
2022-09-23T15:31:18.633Z,4.07
2022-09-23T15:33:47.458Z,3.10
2022-09-23T15:36:18.989Z,2.40
2022-09-23T15:38:46.080Z,2.42
2022-09-23T15:41:14.221Z,2.38
2022-09-23T15:43:41.785Z,3.78
2022-09-23T15:46:13.816Z,5.28
2022-09-23T15:48:46.230Z,4.55
2022-09-23T15:53:39.910Z,3.10
2022-09-23T15:56:06.610Z,7.28
2022-09-23T15:58:33.011Z,3.75
2022-09-23T16:00:59.833Z,2.97
2022-09-23T16:03:30.064Z,4.53
2022-09-23T16:06:00.077Z,2.80
2022-09-23T16:08:27.611Z,2.60
2022-09-23T16:10:54.906Z,2.50
2022-09-23T16:13:21.505Z,4.15
2022-09-23T16:15:47.872Z,2.90
2022-09-23T16:18:14.588Z,3.58
2022-09-23T16:20:44.378Z,4.28
2022-09-23T16:23:10.678Z,3.78
2022-09-23T16:25:37.193Z,2.25
2022-09-23T16:28:04.367Z,3.33
2022-09-23T16:30:33.478Z,2.80
2022-09-23T16:33:00.905Z,3.90
2022-09-23T16:35:28.310Z,5.45
2022-09-23T16:37:55.547Z,3.72
2022-09-23T16:40:24.903Z,5.35
2022-09-23T16:42:52.377Z,4.65
2022-09-23T16:45:22.195Z,3.03
2022-09-23T16:47:50.977Z,5.70
2022-09-23T16:50:19.763Z,2.67
2022-09-23T16:52:46.835Z,3.13
2022-09-23T16:55:13.829Z,2.88
2022-09-23T16:57:40.946Z,3.15
2022-09-23T17:00:29.963Z,5.88
2022-09-23T17:03:15.173Z,3.88
2022-09-23T17:05:42.947Z,2.10
2022-09-23T17:08:13.231Z,2.53
2022-09-23T17:10:40.991Z,3.53
2022-09-23T17:13:10.637Z,2.28
2022-09-23T17:15:38.375Z,5.68
2022-09-23T17:18:08.590Z,2.90
2022-09-23T17:20:35.550Z,3.30
2022-09-23T17:23:05.115Z,5.00
2022-09-23T17:25:32.371Z,3.67
2022-09-23T17:27:58.878Z,3.05
2022-09-23T17:30:26.715Z,4.50
2022-09-23T17:32:53.362Z,4.85
2022-09-23T17:35:19.859Z,4.40
2022-09-23T17:37:47.532Z,3.40
2022-09-23T17:40:14.094Z,2.83
2022-09-23T17:42:44.584Z,2.60
2022-09-23T17:45:12.367Z,2.95
2022-09-23T17:47:41.661Z,7.72
2022-09-23T17:50:08.646Z,5.15
2022-09-23T17:52:35.034Z,4.20
2022-09-23T17:55:02.229Z,3.33
2022-09-23T17:57:28.590Z,3.15
2022-09-23T17:59:56.045Z,2.83
2022-09-23T18:02:22.561Z,2.42
2022-09-23T18:04:49.134Z,4.80
2022-09-23T18:07:15.512Z,2.50
2022-09-23T18:09:41.858Z,2.60
2022-09-23T18:12:08.246Z,3.72
2022-09-23T18:14:34.672Z,3.15
2022-09-23T18:17:01.030Z,3.08
2022-09-23T18:19:27.420Z,2.75
2022-09-23T18:21:56.277Z,2.13
2022-09-23T18:24:38.180Z,3.67
2022-09-23T18:27:06.331Z,2.30
2022-09-23T18:29:33.958Z,2.33
2022-09-23T18:32:00.894Z,3.20
2022-09-23T18:34:27.481Z,2.55
2022-09-23T18:36:55.991Z,3.58
2022-09-23T18:39:22.568Z,1.80
2022-09-23T18:41:49.478Z,2.20
2022-09-23T18:44:16.298Z,3.83
2022-09-23T18:46:44.652Z,2.53
2022-09-23T18:49:29.674Z,2.92
2022-09-23T18:51:57.491Z,3.08
2022-09-23T18:54:27.217Z,3.28
2022-09-23T18:56:54.042Z,2.17
2022-09-23T18:59:23.768Z,3.70
2022-09-23T19:01:50.605Z,2.83
2022-09-23T19:04:19.225Z,2.65
2022-09-23T19:06:45.923Z,5.07
2022-09-23T19:09:13.033Z,7.03
2022-09-23T19:11:39.924Z,3.38
2022-09-23T19:14:10.785Z,2.10
2022-09-23T19:16:39.255Z,2.47
2022-09-23T19:19:06.164Z,2.92
2022-09-23T19:21:33.377Z,3.58
2022-09-23T19:24:03.584Z,3.25
2022-09-23T19:26:37.671Z,4.07
2022-09-23T19:29:04.841Z,4.93
2022-09-23T19:31:39.568Z,4.50
2022-09-23T19:34:10.524Z,4.65
2022-09-23T19:36:39.338Z,3.38
2022-09-23T19:39:20.847Z,2.92
2022-09-23T19:41:47.299Z,4.90
2022-09-23T19:44:14.337Z,3.75
2022-09-23T19:46:44.342Z,3.72
2022-09-23T19:49:11.338Z,5.60
2022-09-23T19:51:38.690Z,3.88
2022-09-23T19:54:07.122Z,4.10
2022-09-23T19:56:34.409Z,6.30
2022-09-23T19:59:02.908Z,5.90
2022-09-23T20:01:31.781Z,4.82
2022-09-23T20:03:58.218Z,5.25
2022-09-23T20:06:24.652Z,4.80
2022-09-23T20:08:51.045Z,5.30
2022-09-23T20:11:22.569Z,4.55
2022-09-23T20:13:58.298Z,6.03
2022-09-23T20:16:25.248Z,3.85
2022-09-23T20:18:52.147Z,4.75
2022-09-23T20:21:18.571Z,3.97
2022-09-23T20:23:45.037Z,3.92
2022-09-23T20:26:29.963Z,6.35
2022-09-23T20:28:56.681Z,4.88
2022-09-23T20:31:23.765Z,3.85
2022-09-23T20:33:51.708Z,5.78
2022-09-23T20:36:18.351Z,4.88
2022-09-23T20:38:44.719Z,5.63
2022-09-23T20:41:11.268Z,4.78
2022-09-23T20:43:37.658Z,5.70
2022-09-23T20:46:05.292Z,5.13
2022-09-23T20:48:31.798Z,8.13
2022-09-23T20:51:02.521Z,6.15
2022-09-23T20:53:29.452Z,6.00
2022-09-23T20:55:57.273Z,5.45
2022-09-23T20:58:29.243Z,7.55
2022-09-23T21:01:12.506Z,6.05
2022-09-23T21:03:41.177Z,7.25
2022-09-23T21:06:09.258Z,7.32
2022-09-23T21:08:36.968Z,6.90
2022-09-23T21:11:06.020Z,6.72
2022-09-23T21:13:32.877Z,8.27
2022-09-23T21:16:11.830Z,7.05
2022-09-23T21:18:38.766Z,6.40
2022-09-23T21:21:06.257Z,6.85
2022-09-23T21:23:34.400Z,6.32
2022-09-23T21:26:06.706Z,5.20
2022-09-23T21:28:35.185Z,6.65
2022-09-23T21:31:04.906Z,6.13
2022-09-23T21:33:31.721Z,6.68
2022-09-23T21:36:03.425Z,7.32
2022-09-23T21:38:36.796Z,8.13
2022-09-23T21:41:05.884Z,7.65
2022-09-23T21:43:34.768Z,7.03
2022-09-23T21:46:02.896Z,6.20
2022-09-23T21:48:31.375Z,9.73
2022-09-23T21:50:59.543Z,8.68
2022-09-23T21:53:27.622Z,7.18
2022-09-23T21:56:03.617Z,8.02
2022-09-23T21:58:31.269Z,7.50
2022-09-23T22:00:58.308Z,10.07
2022-09-23T22:03:25.279Z,8.15
2022-09-23T22:06:08.912Z,8.82
2022-09-23T22:08:37.763Z,7.40
2022-09-23T22:11:06.257Z,7.18
2022-09-23T22:13:32.743Z,6.45
2022-09-23T22:16:05.071Z,6.15
2022-09-23T22:18:31.599Z,6.90
2022-09-23T22:20:58.613Z,7.97
2022-09-23T22:23:25.152Z,6.82
2022-09-23T22:26:02.791Z,8.05
2022-09-23T22:28:51.077Z,8.95
2022-09-23T22:31:36.210Z,7.40
2022-09-23T22:34:02.663Z,10.25
2022-09-23T22:36:29.068Z,10.70
2022-09-23T22:38:59.069Z,9.23
2022-09-23T22:41:26.255Z,8.23
2022-09-23T22:43:53.781Z,11.82
2022-09-23T22:46:22.330Z,9.80
2022-09-23T22:48:50.427Z,12.00
2022-09-23T22:51:16.830Z,10.55
2022-09-23T22:53:43.230Z,9.73
2022-09-23T22:56:09.645Z,8.38
2022-09-23T22:58:36.031Z,8.85
2022-09-23T23:01:02.528Z,8.82
2022-09-23T23:03:30.368Z,8.43
2022-09-23T23:06:00.767Z,10.05
2022-09-23T23:08:28.331Z,10.10
2022-09-23T23:10:55.642Z,10.02
2022-09-23T23:13:23.424Z,8.65
2022-09-23T23:15:49.986Z,11.18
2022-09-23T23:18:16.402Z,9.52
2022-09-23T23:20:42.875Z,9.48
2022-09-23T23:23:09.262Z,10.07
2022-09-23T23:25:35.639Z,10.93
2022-09-23T23:28:02.447Z,11.57
2022-09-23T23:30:28.872Z,10.35
2022-09-23T23:32:55.302Z,9.20
2022-09-23T23:35:21.658Z,11.35
2022-09-23T23:37:48.077Z,8.88
2022-09-23T23:40:14.642Z,10.40
2022-09-23T23:42:41.187Z,11.57
2022-09-23T23:45:08.075Z,11.77
2022-09-23T23:47:34.529Z,13.68
2022-09-23T23:50:04.259Z,10.75
2022-09-23T23:52:30.677Z,10.15
2022-09-23T23:54:57.103Z,12.68
2022-09-23T23:57:23.471Z,10.57
2022-09-23T23:59:49.861Z,12.13
